F/V Oceanie — FVBW — position and weather

sailwx.info

Track history (hours):
 
Tides and Currents Weather Stations Pressure Air Temp Water Temp Dewpoint Dewpoint Depression Visibility Wind Speed Wind Dir Waves Ship Positions

F/V Oceanie

Last reported at 2014-Jul-29 03:34 UTC. Time now 2014-Jul-29 16:58 UTC.
Position N 47°26' W 003°23'.

Length 16 m.

Type: Fishing. MMSI: 228370000.

Date/timePositionNaut miles runAvg speedWind from/ knotsBaromVisibWave heightAir tempDewpointWater temp
2014-Jul-29 03:34N 47°26' W 003°23'9 9.1
2014-Jul-29 02:34N 47°35' W 003°22'9 9.0
2014-Jul-29 01:34N 47°44' W 003°22'5 5.2
2014-Jul-29 00:34N 47°38' W 003°22'9 9.2
2014-Jul-28 23:34N 47°29' W 003°23'9 9.2
2014-Jul-28 22:33N 47°20' W 003°23'4 0.2
2014-Jul-28 02:34N 47°24' W 003°23'9 8.8
2014-Jul-28 01:34N 47°33' W 003°23'9 9.1
2014-Jul-28 00:34N 47°42' W 003°22'2 0.0
2014-Jul-26 01:18N 47°44' W 003°22'0 0.0
2014-Jul-26 00:33N 47°44' W 003°22'0 0.3
2014-Jul-25 23:33N 47°43' W 003°22'10 8.8
2014-Jul-25 22:26N 47°37' W 003°34'18 1.1
2014-Jul-25 05:08N 47°31' W 003°59'3 3.7
2014-Jul-25 04:25N 47°31' W 003°55'5 5.1
2014-Jul-25 03:30N 47°32' W 003°49'8 8.8
2014-Jul-25 02:32N 47°37' W 003°38'8 8.6
2014-Jul-25 01:33N 47°40' W 003°27'5 4.6
2014-Jul-25 00:33N 47°44' W 003°22'9 8.7
2014-Jul-24 23:34N 47°35' W 003°22'10 9.6
2014-Jul-24 22:33N 47°25' W 003°22'10 9.2
2014-Jul-24 21:27N 47°15' W 003°22'11 0.7
2014-Jul-24 05:27N 47°04' W 003°24'6 5.9
2014-Jul-24 04:28N 47°10' W 003°24'12 9.1
2014-Jul-24 03:09N 47°22' W 003°24'6 9.5
2014-Jul-24 02:33N 47°28' W 003°23'9 9.4
2014-Jul-24 01:33N 47°37' W 003°23'7 6.6
2014-Jul-24 00:33N 47°44' W 003°22'8 7.8
2014-Jul-23 23:33N 47°36' W 003°22'9 9.1
2014-Jul-23 22:33N 47°27' W 003°23'25 6.2
2014-Jul-23 18:33N 47°02' W 003°24'18 1.2
2014-Jul-23 03:14N 47°20' W 003°25'6 9.3
2014-Jul-23 02:34N 47°26' W 003°24'10 9.5
2014-Jul-23 01:33N 47°35' W 003°23'8 8.4
2014-Jul-23 00:33N 47°44' W 003°22'3 3.0
2014-Jul-22 23:33N 47°41' W 003°22'9 9.0
2014-Jul-22 22:34N 47°32' W 003°26'24 5.6
2014-Jul-22 18:16N 47°08' W 003°33'3 4.1
2014-Jul-22 17:32N 47°06' W 003°30'3 0.2
2014-Jul-22 04:19N 47°07' W 003°27'7 7.9
2014-Jul-22 03:24N 47°14' W 003°26'8 9.0
2014-Jul-22 02:33N 47°22' W 003°25'9 9.1
2014-Jul-22 01:33N 47°31' W 003°24'10 9.5
2014-Jul-22 00:33N 47°40' W 003°22'  
Track history (hours):
 
Tides and Currents Weather Stations Pressure Air Temp Water Temp Dewpoint Dewpoint Depression Visibility Wind Speed Wind Dir Waves Ship Positions

F/V Oceanie

Last reported at 2014-Jul-29 03:34 UTC. Time now 2014-Jul-29 16:58 UTC.
Position N 47°26' W 003°23'.

Length 16 m.

Type: Fishing. MMSI: 228370000.

Date/timePositionNaut miles runAvg speedWind from/ knotsBaromVisibWave heightAir tempDewpointWater temp
2014-Jul-29 03:34N 47°26' W 003°23'9 9.1
2014-Jul-29 02:34N 47°35' W 003°22'9 9.0
2014-Jul-29 01:34N 47°44' W 003°22'5 5.2
2014-Jul-29 00:34N 47°38' W 003°22'9 9.2
2014-Jul-28 23:34N 47°29' W 003°23'9 9.2
2014-Jul-28 22:33N 47°20' W 003°23'4 0.2
2014-Jul-28 02:34N 47°24' W 003°23'9 8.8
2014-Jul-28 01:34N 47°33' W 003°23'9 9.1
2014-Jul-28 00:34N 47°42' W 003°22'2 0.0
2014-Jul-26 01:18N 47°44' W 003°22'0 0.0
2014-Jul-26 00:33N 47°44' W 003°22'0 0.3
2014-Jul-25 23:33N 47°43' W 003°22'10 8.8
2014-Jul-25 22:26N 47°37' W 003°34'18 1.1
2014-Jul-25 05:08N 47°31' W 003°59'3 3.7
2014-Jul-25 04:25N 47°31' W 003°55'5 5.1
2014-Jul-25 03:30N 47°32' W 003°49'8 8.8
2014-Jul-25 02:32N 47°37' W 003°38'8 8.6
2014-Jul-25 01:33N 47°40' W 003°27'5 4.6
2014-Jul-25 00:33N 47°44' W 003°22'9 8.7
2014-Jul-24 23:34N 47°35' W 003°22'10 9.6
2014-Jul-24 22:33N 47°25' W 003°22'10 9.2
2014-Jul-24 21:27N 47°15' W 003°22'11 0.7
2014-Jul-24 05:27N 47°04' W 003°24'6 5.9
2014-Jul-24 04:28N 47°10' W 003°24'12 9.1
2014-Jul-24 03:09N 47°22' W 003°24'6 9.5
2014-Jul-24 02:33N 47°28' W 003°23'9 9.4
2014-Jul-24 01:33N 47°37' W 003°23'7 6.6
2014-Jul-24 00:33N 47°44' W 003°22'8 7.8
2014-Jul-23 23:33N 47°36' W 003°22'9 9.1
2014-Jul-23 22:33N 47°27' W 003°23'25 6.2
2014-Jul-23 18:33N 47°02' W 003°24'18 1.2
2014-Jul-23 03:14N 47°20' W 003°25'6 9.3
2014-Jul-23 02:34N 47°26' W 003°24'10 9.5
2014-Jul-23 01:33N 47°35' W 003°23'8 8.4
2014-Jul-23 00:33N 47°44' W 003°22'3 3.0
2014-Jul-22 23:33N 47°41' W 003°22'9 9.0
2014-Jul-22 22:34N 47°32' W 003°26'24 5.6
2014-Jul-22 18:16N 47°08' W 003°33'3 4.1
2014-Jul-22 17:32N 47°06' W 003°30'3 0.2
2014-Jul-22 04:19N 47°07' W 003°27'7 7.9
2014-Jul-22 03:24N 47°14' W 003°26'8 9.0
2014-Jul-22 02:33N 47°22' W 003°25'9 9.1
2014-Jul-22 01:33N 47°31' W 003°24'10 9.5
2014-Jul-22 00:33N 47°40' W 003°22'  

Dump ship's entire track history